Alexander, Maine
Current Conditions -  °F | °C
As of 11:35 AM on Friday 28 Nov 2014 (Local Time) from KBHB Reporting Station
Broken Clouds Broken Clouds  
Wind Chill: -8°   Ceiling: 8000
Heat Index: -3°   Visibility: 10mi
Dew Point: -7°   Wind: 8mph
Humidity: 74%   Direction: 340°NNW
Pressure: 30.01"   Gusts: NA
Location:  45.0659°N, 67.4987°W
Report Text: KBHB 281635Z AUTO 34007KT 10SM BKN080 M03/M07 A3001 RMK AO1
Loading
Personal Weather Stations






























Interactive Weather Map New forecast layout! Learn more

10-Day Weather Forecast

Advertisements
Track Severe Weather on mobile